Time;durP1;ratioP1;P1;durP2;ratioP2;P2;SDS_P1;SDS_P2;PMS_P1;PMS_P2;Temp;Humidity;BMP_temperature;BMP_pressure;BME280_temperature;BME280_humidity;BME280_pressure;Samples;Min_cycle;Max_cycle;Signal;HPM_P1;HPM_P2
2023/01/10 00:01:56;;;;;;;89.97;49.15;;;;;;;5.10;100.00;99982.44;5050466;28;20032;-75
2023/01/10 00:04:25;;;;;;;87.85;49.13;;;;;;;5.25;100.00;100002.47;5051914;28;20128;-75
2023/01/10 00:06:51;;;;;;;79.07;48.53;;;;;;;5.15;100.00;100004.22;5050756;28;20461;-75
2023/01/10 00:09:16;;;;;;;89.63;50.90;;;;;;;5.09;100.00;99995.88;5052637;28;20033;-76
2023/01/10 00:14:32;;;;;;;80.57;48.40;;;;;;;4.65;100.00;99932.31;5051704;28;20083;-76
2023/01/10 00:16:57;;;;;;;;;;;;;;;4.95;100.00;99969.94;5052360;28;20102;-76
2023/01/10 00:19:23;;;;;;;83.00;49.63;;;;;;;4.86;100.00;99957.38;5050481;28;19912;-75
2023/01/10 00:21:53;;;;;;;85.07;51.25;;;;;;;4.42;100.00;99881.28;5051010;28;20055;-77
2023/01/10 00:24:19;;;;;;;85.75;52.72;;;;;;;4.81;100.00;99964.97;5051959;28;20061;-77
2023/01/10 00:26:50;;;;;;;119.38;71.93;;;;;;;4.99;100.00;99947.22;5052276;28;20052;-76
2023/01/10 00:29:26;;;;;;;92.00;55.03;;;;;;;4.88;100.00;99936.38;5052089;28;20553;-75
2023/01/10 00:31:52;;;;;;;101.93;60.38;;;;;;;4.68;100.00;99897.91;5050615;28;20035;-76
2023/01/10 00:34:17;;;;;;;96.93;57.60;;;;;;;4.51;100.00;99904.72;5050519;28;20033;-73
2023/01/10 00:36:44;;;;;;;104.47;57.42;;;;;;;4.67;100.00;99939.03;5051962;28;20052;-76
2023/01/10 00:39:10;;;;;;;97.18;58.22;;;;;;;4.31;100.00;99853.66;5050400;28;20033;-74
2023/01/10 00:44:19;;;;;;;105.72;63.72;;;;;;;4.61;100.00;99916.41;5051489;28;20040;-74
2023/01/10 00:46:45;;;;;;;144.88;85.63;;;;;;;4.72;100.00;99929.75;5051649;28;20033;-76
2023/01/10 00:49:12;;;;;;;126.60;72.63;;;;;;;4.33;100.00;99862.03;5050717;28;20514;-76
2023/01/10 00:51:38;;;;;;;101.82;56.92;;;;;;;4.43;100.00;99903.06;5051555;28;20476;-76
2023/01/10 00:54:03;;;;;;;97.18;58.15;;;;;;;4.13;100.00;99834.44;5050436;28;20031;-77
2023/01/10 00:56:29;;;;;;;98.22;57.47;;;;;;;4.51;100.00;99884.56;5051791;28;20450;-76
2023/01/10 00:58:54;;;;;;;107.03;63.30;;;;;;;4.04;100.00;99819.38;5051749;28;20151;-76
2023/01/10 01:01:20;;;;;;;105.47;58.38;;;;;;;4.18;100.00;99812.63;5051284;28;20033;-76
2023/01/10 01:03:45;;;;;;;94.20;55.92;;;;;;;4.53;100.00;99872.81;5051582;28;20044;-76
2023/01/10 01:06:10;;;;;;;92.20;55.80;;;;;;;4.57;100.00;99876.16;5051786;28;20117;-75
2023/01/10 01:08:36;;;;;;;95.75;55.78;;;;;;;4.39;100.00;99854.44;5051568;28;20095;-76
2023/01/10 01:11:02;;;;;;;94.00;55.88;;;;;;;4.50;100.00;99875.34;5051582;28;20056;-76
2023/01/10 01:13:27;;;;;;;92.72;53.60;;;;;;;4.04;100.00;99779.16;5050539;28;20463;-75
2023/01/10 01:15:57;;;;;;;92.53;54.60;;;;;;;4.46;100.00;99866.13;5050014;28;20496;-76
2023/01/10 01:18:22;;;;;;;90.47;54.78;;;;;;;4.39;100.00;99851.94;5050509;28;20098;-77
2023/01/10 01:21:01;;;;;;;93.38;57.17;;;;;;;4.34;100.00;99848.59;5051641;28;20486;-77
2023/01/10 01:23:26;;;;;;;88.22;54.08;;;;;;;4.15;100.00;99857.91;5051713;28;20036;-76
2023/01/10 01:25:52;;;;;;;90.63;54.60;;;;;;;4.20;100.00;99860.38;5051116;28;20032;-77
2023/01/10 01:28:18;;;;;;;89.18;55.13;;;;;;;3.95;100.00;99857.16;5056015;28;20083;-77
2023/01/10 01:30:44;;;;;;;96.25;57.17;;;;;;;4.03;100.00;99852.09;5055529;28;20025;-77
2023/01/10 01:33:13;;;;;;;102.07;62.13;;;;;;;4.05;100.00;99857.94;5055440;28;20120;-76
2023/01/10 01:35:43;;;;;;;112.18;67.43;;;;;;;4.21;100.00;99849.50;5054182;28;20035;-76
2023/01/10 01:38:09;;;;;;;110.05;65.60;;;;;;;4.19;100.00;99856.22;5054038;28;20060;-76
2023/01/10 01:40:36;;;;;;;103.47;65.75;;;;;;;4.05;100.00;99847.88;5055121;28;20041;-77
2023/01/10 01:43:02;;;;;;;106.07;67.32;;;;;;;4.08;100.00;99832.81;5055412;28;20064;-78
2023/01/10 01:45:38;;;;;;;104.25;63.13;;;;;;;3.28;100.00;99714.97;5054356;28;20048;-78
2023/01/10 01:48:16;;;;;;;107.82;64.07;;;;;;;3.87;100.00;99795.16;5055327;28;20051;-78
2023/01/10 01:50:49;;;;;;;104.00;62.35;;;;;;;3.87;100.00;99797.66;5055628;28;22315;-80
2023/01/10 01:53:45;;;;;;;107.18;64.95;;;;;;;4.13;100.00;99800.91;5053627;28;20032;-79
2023/01/10 01:56:36;;;;;;;99.90;57.50;;;;;;;3.61;100.00;99729.06;5052060;28;20048;-77
2023/01/10 01:59:08;;;;;;;100.05;55.50;;;;;;;4.06;100.00;99782.50;5054744;28;20033;-81
2023/01/10 02:01:36;;;;;;;95.85;54.92;;;;;;;3.83;100.00;99765.84;5053938;28;20355;-79
2023/01/10 02:04:12;;;;;;;95.75;54.92;;;;;;;3.98;100.00;99789.22;5055309;28;20522;-78
2023/01/10 02:06:38;;;;;;;97.28;55.38;;;;;;;3.97;100.00;99759.06;5054590;28;20056;-78
2023/01/10 02:09:19;;;;;;;100.15;58.13;;;;;;;4.24;100.00;99776.53;5054637;28;20112;-80
2023/01/10 02:11:44;;;;;;;118.35;77.30;;;;;;;4.08;100.00;99714.59;5053501;28;20557;-79
2023/01/10 02:14:11;;;;;;;95.97;54.17;;;;;;;4.35;100.00;99779.81;5054316;28;20029;-79
2023/01/10 02:16:37;;;;;;;100.30;60.55;;;;;;;4.00;100.00;99714.63;5054556;28;20036;-78
2023/01/10 02:19:07;;;;;;;102.05;59.67;;;;;;;4.44;100.00;99789.81;5054865;28;20033;-78
2023/01/10 02:21:52;;;;;;;97.32;55.65;;;;;;;4.40;100.00;99785.66;5053562;28;20033;-78
2023/01/10 02:24:34;;;;;;;93.38;52.67;;;;;;;4.58;100.00;99788.03;5053163;28;20502;-79
2023/01/10 02:27:04;;;;;;;97.13;54.10;;;;;;;4.79;100.00;99782.88;5054308;28;20033;-80
2023/01/10 02:29:47;;;;;;;90.45;54.10;;;;;;;4.39;100.00;99716.06;5053895;28;20040;-79
2023/01/10 02:32:30;;;;;;;91.30;50.42;;;;;;;4.64;100.00;99777.09;5054397;28;20025;-80
2023/01/10 02:35:03;;;;;;;93.28;52.10;;;;;;;4.56;100.00;99768.75;5053271;28;20033;-79
2023/01/10 02:37:52;;;;;;;95.35;51.13;;;;;;;4.53;100.00;99779.72;5053577;28;20029;-79
2023/01/10 02:40:26;;;;;;;91.20;50.08;;;;;;;4.53;100.00;99779.72;5053979;28;20107;-78
2023/01/10 02:42:59;;;;;;;94.78;51.85;;;;;;;4.49;100.00;99795.66;5054387;28;20032;-77
2023/01/10 02:45:43;;;;;;;89.70;48.88;;;;;;;4.09;100.00;99717.09;5053351;28;20479;-77
2023/01/10 02:48:09;;;;;;;90.63;48.35;;;;;;;4.39;100.00;99779.81;5054152;28;20112;-78
2023/01/10 02:50:40;;;;;;;85.50;48.28;;;;;;;4.49;100.00;99792.31;5052598;28;20079;-78
2023/01/10 02:53:13;;;;;;;83.28;47.30;;;;;;;4.29;100.00;99765.59;5052659;28;20032;-78
2023/01/10 02:56:02;;;;;;;85.35;47.35;;;;;;;4.37;100.00;99771.44;5053501;28;20040;-79
2023/01/10 02:58:30;;;;;;;82.75;44.65;;;;;;;4.30;100.00;99772.28;5053437;28;20029;-78
2023/01/10 03:01:16;;;;;;;75.90;45.08;;;;;;;4.45;100.00;99768.00;5053385;28;20102;-77
2023/01/10 03:04:28;;;;;;;71.90;42.20;;;;;;;4.29;100.00;99759.72;5032575;28;20041;-77
2023/01/10 03:07:04;;;;;;;68.18;38.35;;;;;;;4.12;100.00;99718.78;5015900;28;20559;-78
2023/01/10 03:09:42;;;;;;;72.30;40.25;;;;;;;3.87;100.00;99690.41;5034054;28;20061;-76
2023/01/10 03:12:19;;;;;;;71.63;40.63;;;;;;;4.29;100.00;99768.13;5033143;28;20033;-77
2023/01/10 03:14:46;;;;;;;73.25;41.08;;;;;;;4.26;100.00;99749.69;5034034;28;20116;-77
2023/01/10 03:17:14;;;;;;;70.68;40.10;;;;;;;4.44;100.00;99733.66;5032353;28;20033;-75
2023/01/10 03:19:48;;;;;;;73.63;41.17;;;;;;;4.34;100.00;99752.97;5032494;28;20116;-76
2023/01/10 03:22:14;;;;;;;81.00;41.05;;;;;;;3.72;100.00;99667.06;5032173;28;20037;-78
2023/01/10 03:24:43;;;;;;;78.50;41.42;;;;;;;3.93;100.00;99682.00;5033550;28;20425;-78
2023/01/10 03:27:21;;;;;;;76.82;41.10;;;;;;;4.32;100.00;99735.38;5032834;28;20108;-78
2023/01/10 03:30:11;;;;;;;81.07;43.08;;;;;;;4.33;100.00;99724.50;5033185;28;20087;-79
2023/01/10 03:32:37;;;;;;;91.55;46.72;;;;;;;4.40;100.00;99738.69;5032832;28;20033;-78
2023/01/10 03:35:04;;;;;;;82.90;46.53;;;;;;;4.03;100.00;99660.97;5031741;28;20041;-77
2023/01/10 03:37:29;;;;;;;89.70;47.42;;;;;;;4.54;100.00;99748.66;5047347;28;20119;-76
2023/01/10 03:40:45;;;;;;;88.53;47.45;;;;;;;4.49;100.00;99737.78;5053164;28;20049;-81
2023/01/10 03:46:24;;;;;;;92.28;49.58;;;;;;;4.58;100.00;99717.56;5052267;28;20423;-75
2023/01/10 03:48:51;;;;;;;92.05;50.38;;;;;;;4.63;100.00;99718.38;5052581;28;20029;-79
2023/01/10 03:51:18;;;;;;;94.65;50.13;;;;;;;4.21;100.00;99645.75;5048608;28;20037;-78
2023/01/10 03:53:44;;;;;;;92.70;52.17;;;;;;;4.47;100.00;99679.09;5045082;28;20029;-78
2023/01/10 03:56:13;;;;;;;92.95;50.28;;;;;;;5.19;100.00;99707.75;5050373;28;20025;-78
2023/01/10 03:58:41;;;;;;;103.18;55.63;;;;;;;4.73;100.00;99639.41;5052791;28;20475;-76
2023/01/10 04:01:06;;;;;;;102.93;56.67;;;;;;;5.01;100.00;99706.25;5051078;28;20040;-78
2023/01/10 04:03:32;;;;;;;100.60;56.65;;;;;;;5.14;100.00;99714.53;5052191;28;20045;-76
2023/01/10 04:05:57;;;;;;;105.70;56.50;;;;;;;5.06;100.00;99717.13;5051698;28;20037;-73
2023/01/10 04:08:23;;;;;;;99.88;55.75;;;;;;;4.76;100.00;99672.09;4696091;28;10000521;-78
2023/01/10 04:10:48;;;;;;;101.28;54.08;;;;;;;5.03;100.00;99739.00;5030285;28;20038;-74
2023/01/10 04:13:14;;;;;;;99.93;52.60;;;;;;;4.63;100.00;99669.72;5031070;28;20033;-77
2023/01/10 04:15:39;;;;;;;102.55;56.08;;;;;;;4.99;100.00;99730.63;5030875;28;20108;-77
2023/01/10 04:18:05;;;;;;;101.57;56.22;;;;;;;4.85;100.00;99684.59;5030608;28;20044;-76
2023/01/10 04:20:30;;;;;;;104.47;56.17;;;;;;;5.07;100.00;99736.41;5051957;28;20048;-76
2023/01/10 04:22:55;;;;;;;104.40;57.85;;;;;;;5.15;100.00;99737.19;5052799;28;20458;-78
2023/01/10 04:25:22;;;;;;;110.25;58.17;;;;;;;5.28;100.00;99717.75;5053694;28;20028;-77
2023/01/10 04:27:49;;;;;;;113.85;60.63;;;;;;;4.80;100.00;99652.75;5044591;28;20037;-79
2023/01/10 04:30:15;;;;;;;111.15;60.95;;;;;;;4.95;100.00;99662.69;5041697;28;20025;-77
2023/01/10 04:32:40;;;;;;;112.78;60.25;;;;;;;5.33;100.00;99718.50;5051334;28;20119;-76
2023/01/10 04:35:06;;;;;;;115.22;62.58;;;;;;;5.36;100.00;99728.56;5053008;28;20036;-77
2023/01/10 04:37:32;;;;;;;117.20;63.00;;;;;;;5.29;100.00;99735.34;5050666;28;20060;-77
2023/01/10 04:39:57;;;;;;;117.63;63.88;;;;;;;5.33;100.00;99735.34;5049921;28;20384;-75
2023/01/10 04:42:22;;;;;;;111.38;61.97;;;;;;;4.92;100.00;99655.16;5051406;28;20037;-72
2023/01/10 04:44:48;;;;;;;112.10;63.30;;;;;;;5.41;100.00;99736.09;5051125;28;20058;-72
2023/01/10 04:47:13;;;;;;;111.82;61.92;;;;;;;5.41;100.00;99728.53;5049908;28;20039;-74
2023/01/10 04:49:38;;;;;;;114.57;61.60;;;;;;;5.02;100.00;99677.72;5051631;28;20025;-73
2023/01/10 04:52:04;;;;;;;110.22;58.75;;;;;;;5.31;100.00;99716.88;5051514;28;20120;-73
2023/01/10 04:54:29;;;;;;;110.35;59.58;;;;;;;4.93;100.00;99679.50;5051561;28;20104;-72
2023/01/10 04:57:06;;;;;;;115.78;60.05;;;;;;;5.23;100.00;99704.34;5051764;28;20119;-72
2023/01/10 04:59:32;;;;;;;104.32;57.38;;;;;;;4.68;100.00;99608.41;5049797;28;20670;-72
2023/01/10 05:01:57;;;;;;;107.43;55.55;;;;;;;5.34;100.00;99702.56;5052225;28;20043;-71
2023/01/10 05:04:23;;;;;;;100.32;53.25;;;;;;;4.97;100.00;99666.84;5052652;28;20049;-71
2023/01/10 05:06:49;;;;;;;111.35;59.25;;;;;;;5.04;100.00;99675.16;5053754;28;20033;-72
2023/01/10 05:09:14;;;;;;;109.93;60.03;;;;;;;5.16;100.00;99675.03;5053566;28;20033;-70
2023/01/10 05:11:39;;;;;;;108.15;59.17;;;;;;;5.26;100.00;99686.69;5053104;28;20056;-70
2023/01/10 05:14:05;;;;;;;104.95;56.95;;;;;;;5.04;100.00;99644.94;5052658;28;20404;-70
2023/01/10 05:16:30;;;;;;;101.93;55.55;;;;;;;5.57;100.00;99715.72;5054118;28;20033;-75
2023/01/10 05:18:56;;;;;;;102.22;56.80;;;;;;;5.56;100.00;99721.63;5054159;28;20052;-73
2023/01/10 05:21:21;;;;;;;101.82;55.78;;;;;;;5.70;100.00;99727.31;5053442;28;20044;-72
2023/01/10 05:23:47;;;;;;;102.20;57.85;;;;;;;5.04;100.00;99607.16;5053601;28;20032;-69
2023/01/10 05:26:19;;;;;;;103.85;57.70;;;;;;;5.46;100.00;99684.78;5052037;28;20079;-71
2023/01/10 05:28:44;;;;;;;100.43;57.35;;;;;;;5.41;100.00;99673.91;5053522;28;20036;-70
2023/01/10 05:31:12;;;;;;;97.18;55.53;;;;;;;5.44;100.00;99655.38;5053047;28;20029;-71
2023/01/10 05:33:38;;;;;;;104.88;58.05;;;;;;;5.45;100.00;99654.56;5053324;28;20051;-70
2023/01/10 05:36:05;;;;;;;107.13;59.40;;;;;;;5.62;100.00;99690.44;5052269;28;20120;-71
2023/01/10 05:38:32;;;;;;;101.38;56.28;;;;;;;5.98;100.00;99753.88;5053679;28;20037;-73
2023/01/10 05:40:58;;;;;;;98.40;56.90;;;;;;;5.80;100.00;99697.78;5051356;28;20100;-72
2023/01/10 05:43:25;;;;;;;107.10;59.30;;;;;;;6.16;100.00;99735.13;5052405;28;20033;-73
2023/01/10 05:45:51;;;;;;;104.78;57.78;;;;;;;5.49;100.00;99620.84;5051029;28;20036;-71
2023/01/10 05:48:17;;;;;;;96.75;53.15;;;;;;;7.02;100.00;99688.25;5054023;28;20040;-72
2023/01/10 05:50:43;;;;;;;86.30;47.78;;;;;;;7.88;100.00;99732.88;5054297;28;20145;-73
2023/01/10 05:53:08;;;;;;;107.40;59.45;;;;;;;6.26;100.00;99680.31;5048595;28;20075;-70
2023/01/10 05:55:33;;;;;;;104.95;57.35;;;;;;;6.53;100.00;99722.78;5054064;28;20021;-71
2023/01/10 05:57:59;;;;;;;102.50;58.15;;;;;;;6.18;100.00;99665.28;5053308;28;20025;-71
2023/01/10 06:00:25;;;;;;;102.00;56.22;;;;;;;6.29;100.00;99677.72;5053514;28;20021;-71
2023/01/10 06:02:53;;;;;;;100.95;55.65;;;;;;;6.44;100.00;99697.72;5053612;28;20049;-71
2023/01/10 06:05:19;;;;;;;101.65;55.95;;;;;;;6.54;100.00;99684.03;5054092;28;20072;-71
2023/01/10 06:07:44;;;;;;;97.10;55.85;;;;;;;6.82;100.00;99721.47;5053305;28;20064;-71
2023/01/10 06:10:10;;;;;;;105.78;58.80;;;;;;;6.86;100.00;99723.06;5053016;28;20404;-72
2023/01/10 06:12:38;;;;;;;111.57;61.15;;;;;;;6.19;100.00;99611.44;5051195;28;20025;-73
2023/01/10 06:15:05;;;;;;;107.93;60.75;;;;;;;6.59;100.00;99670.50;5053224;28;20087;-72
2023/01/10 06:17:30;;;;;;;98.63;59.63;;;;;;;6.98;100.00;99727.91;5052401;28;20044;-73
2023/01/10 06:19:56;;;;;;;98.05;57.90;;;;;;;6.75;100.00;99682.03;5052630;28;20466;-72
2023/01/10 06:22:21;;;;;;;109.95;62.33;;;;;;;6.69;100.00;99658.56;5052319;28;20037;-73
2023/01/10 06:24:47;;;;;;;106.93;59.22;;;;;;;7.11;100.00;99731.03;5053726;28;20028;-73
2023/01/10 06:27:12;;;;;;;99.82;56.33;;;;;;;7.10;100.00;99710.84;5053422;28;20109;-72
2023/01/10 06:29:38;;;;;;;101.35;57.67;;;;;;;6.62;100.00;99609.84;5053667;28;20029;-72
2023/01/10 06:32:03;;;;;;;98.45;56.15;;;;;;;7.13;100.00;99691.41;5052068;28;20060;-72
2023/01/10 06:34:29;;;;;;;96.07;56.00;;;;;;;6.91;100.00;99650.53;5052116;28;20590;-73
2023/01/10 06:36:54;;;;;;;102.15;57.58;;;;;;;7.07;100.00;99673.03;5053421;28;20112;-72
2023/01/10 06:39:19;;;;;;;98.30;54.90;;;;;;;7.12;100.00;99672.06;5053678;28;20032;-74
2023/01/10 06:41:45;;;;;;;94.45;54.55;;;;;;;7.11;100.00;99655.22;5053189;28;20032;-73
2023/01/10 06:44:10;;;;;;;89.00;52.85;;;;;;;7.15;100.00;99656.00;5052811;28;20033;-71
2023/01/10 06:46:36;;;;;;;92.88;54.25;;;;;;;6.85;100.00;99607.72;5053030;28;20025;-72
2023/01/10 06:49:01;;;;;;;90.40;54.30;;;;;;;7.61;100.00;99732.59;5053370;28;20051;-73
2023/01/10 06:51:28;;;;;;;92.50;53.95;;;;;;;7.58;100.00;99745.31;5053481;28;20560;-73
2023/01/10 06:53:54;;;;;;;88.57;54.30;;;;;;;7.66;100.00;99734.19;5053050;28;20025;-72
2023/01/10 06:56:19;;;;;;;87.63;54.05;;;;;;;7.57;100.00;99719.19;5051523;28;20033;-72
2023/01/10 06:58:48;;;;;;;84.05;50.50;;;;;;;7.79;100.00;99752.47;5052427;28;20033;-72
2023/01/10 07:01:16;;;;;;;82.00;50.08;;;;;;;7.84;100.00;99761.63;5052937;28;20036;-72
2023/01/10 07:03:41;;;;;;;84.20;49.45;;;;;;;7.84;100.00;99735.53;5051119;28;20094;-73
2023/01/10 07:06:10;;;;;;;81.47;50.33;;;;;;;7.83;100.00;99734.69;5052887;28;20045;-72
2023/01/10 07:08:40;;;;;;;82.13;49.00;;;;;;;7.93;100.00;99732.78;5052562;28;20024;-72
2023/01/10 07:11:06;;;;;;;77.88;48.88;;;;;;;7.67;100.00;99697.91;5052405;28;20033;-72
2023/01/10 07:13:32;;;;;;;73.43;47.97;;;;;;;7.64;100.00;99699.69;5050966;28;20029;-72
2023/01/10 07:16:05;;;;;;;75.90;48.78;;;;;;;7.84;100.00;99743.91;5052453;28;20681;-73
2023/01/10 07:18:33;;;;;;;76.35;47.55;;;;;;;7.69;100.00;99695.34;5051203;28;20029;-72
2023/01/10 07:20:58;;;;;;;74.18;47.40;;;;;;;8.09;100.00;99756.91;5052247;28;20037;-73
2023/01/10 07:23:24;;;;;;;71.60;46.30;;;;;;;8.00;100.00;99731.81;5052130;28;20036;-72
2023/01/10 07:25:49;;;;;;;78.57;47.25;;;;;;;8.02;100.00;99740.19;5050668;28;20032;-73
2023/01/10 07:28:15;;;;;;;80.63;49.97;;;;;;;7.85;100.00;99732.09;5050937;28;20398;-73
2023/01/10 07:30:40;;;;;;;71.00;45.85;;;;;;;8.00;100.00;99754.56;5052056;28;20194;-72
2023/01/10 07:33:06;;;;;;;74.72;46.40;;;;;;;7.63;100.00;99683.66;5052535;28;20029;-72
2023/01/10 07:35:32;;;;;;;72.15;49.05;;;;;;;7.75;100.00;99685.09;5051034;28;20021;-72
2023/01/10 07:37:58;;;;;;;69.03;45.03;;;;;;;7.77;100.00;99701.06;5051925;28;20037;-72
2023/01/10 07:40:25;;;;;;;71.85;44.80;;;;;;;7.73;100.00;99669.13;5051823;28;20510;-71
2023/01/10 07:42:57;;;;;;;72.18;46.58;;;;;;;7.81;100.00;99679.91;5052007;28;20037;-73
2023/01/10 07:45:23;;;;;;;68.80;43.17;;;;;;;7.48;100.00;99619.94;5051955;28;20506;-72
2023/01/10 07:47:49;;;;;;;64.15;42.58;;;;;;;8.25;100.00;99744.75;5051873;28;20024;-73
2023/01/10 07:50:15;;;;;;;61.83;42.33;;;;;;;7.98;100.00;99670.25;5050263;28;20033;-72
2023/01/10 07:52:40;;;;;;;65.35;42.03;;;;;;;8.00;100.00;99663.47;5051777;28;20029;-72
2023/01/10 07:55:06;;;;;;;58.70;39.58;;;;;;;8.10;100.00;99679.25;5051368;28;20036;-72
2023/01/10 07:57:31;;;;;;;58.97;40.05;;;;;;;8.44;100.00;99741.78;5052031;28;20119;-72
2023/01/10 07:59:57;;;;;;;62.60;38.67;;;;;;;8.51;100.00;99712.91;5050695;28;20029;-73
2023/01/10 08:02:22;;;;;;;56.45;37.42;;;;;;;8.22;100.00;99657.00;5050560;28;20040;-73
2023/01/10 08:04:48;;;;;;;54.78;36.50;;;;;;;8.61;100.00;99696.63;5051257;28;20124;-73
2023/01/10 08:07:13;;;;;;;53.50;36.28;;;;;;;8.65;100.00;99690.63;5051270;28;20036;-73
2023/01/10 08:09:38;;;;;;;51.72;35.20;;;;;;;7.99;100.00;99578.25;5050351;28;20037;-73
2023/01/10 08:12:04;;;;;;;50.90;34.17;;;;;;;8.48;100.00;99651.34;5051804;28;20021;-72
2023/01/10 08:14:29;;;;;;;49.78;34.90;;;;;;;8.34;100.00;99625.56;5051281;28;20028;-73
2023/01/10 08:16:55;;;;;;;51.95;34.97;;;;;;;8.69;100.00;99676.16;5052671;28;20031;-73
2023/01/10 08:19:20;;;;;;;52.45;34.33;;;;;;;8.74;100.00;99685.31;5052118;28;20025;-73
2023/01/10 08:21:46;;;;;;;46.35;32.28;;;;;;;8.64;100.00;99661.06;5051607;28;20036;-73
2023/01/10 08:24:11;;;;;;;49.63;33.42;;;;;;;8.06;100.00;99572.16;5049976;28;20090;-73
2023/01/10 08:26:37;;;;;;;49.15;32.92;;;;;;;8.76;100.00;99664.97;5051440;28;20075;-73
2023/01/10 08:29:02;;;;;;;45.05;30.98;;;;;;;8.77;100.00;99674.28;5051649;28;20021;-73
2023/01/10 08:31:27;;;;;;;46.75;32.10;;;;;;;8.36;100.00;99626.34;5051314;28;20442;-73
2023/01/10 08:33:53;;;;;;;47.58;33.22;;;;;;;8.69;100.00;99684.56;5051142;28;20388;-72
2023/01/10 08:36:20;;;;;;;50.30;32.38;;;;;;;8.71;100.00;99666.81;5050576;28;20107;-72
2023/01/10 08:38:47;;;;;;;49.30;32.60;;;;;;;8.83;100.00;99668.19;5049510;28;20475;-72
2023/01/10 08:41:12;;;;;;;50.70;34.08;;;;;;;8.85;100.00;99672.38;5051375;28;20459;-71
2023/01/10 08:43:39;;;;;;;50.53;34.03;;;;;;;8.77;100.00;99655.69;5051017;28;20025;-72
2023/01/10 08:46:05;;;;;;;49.55;33.55;;;;;;;8.80;100.00;99658.97;5051222;28;20052;-72
2023/01/10 08:48:31;;;;;;;46.03;30.10;;;;;;;8.33;100.00;99588.41;5051132;28;20055;-72
2023/01/10 08:50:56;;;;;;;48.80;33.63;;;;;;;8.82;100.00;99644.56;5051199;28;20029;-72
2023/01/10 08:53:21;;;;;;;50.50;33.92;;;;;;;8.79;100.00;99624.38;5051398;28;20025;-73
2023/01/10 08:55:48;;;;;;;49.17;34.15;;;;;;;8.50;100.00;99574.44;5050986;28;20041;-73
2023/01/10 08:58:14;;;;;;;56.53;35.47;;;;;;;8.57;100.00;99572.59;5051429;28;20033;-73
2023/01/10 09:00:40;;;;;;;53.55;34.08;;;;;;;9.00;100.00;99626.31;5050618;28;20040;-72
2023/01/10 09:03:07;;;;;;;53.72;35.35;;;;;;;9.15;100.00;99613.22;5050775;28;20106;-73
2023/01/10 09:05:34;;;;;;;46.75;30.17;;;;;;;9.20;100.00;99595.34;5051382;28;20052;-73
2023/01/10 09:08:01;;;;;;;43.90;29.65;;;;;;;9.16;100.00;99561.63;5050860;28;20475;-72
2023/01/10 09:10:28;;;;;;;51.80;33.97;;;;;;;9.05;100.00;99533.22;5049900;28;20040;-73
2023/01/10 09:12:54;;;;;;;48.13;30.55;;;;;;;9.18;100.00;99559.03;5049467;28;20112;-73
2023/01/10 09:15:21;;;;;;;42.42;32.33;;;;;;;9.01;100.00;99541.81;5050832;28;20080;-72
2023/01/10 09:17:48;;;;;;;44.30;31.65;;;;;;;9.06;100.00;99539.13;5049348;28;20029;-73
2023/01/10 09:20:14;;;;;;;44.65;30.50;;;;;;;9.37;100.00;99600.75;5050966;28;20119;-72
2023/01/10 09:22:39;;;;;;;42.42;30.23;;;;;;;8.91;100.00;99530.25;5049244;28;20484;-72
2023/01/10 09:25:05;;;;;;;46.65;31.80;;;;;;;8.85;100.00;99510.16;5049551;28;20025;-73
2023/01/10 09:27:31;;;;;;;47.03;32.42;;;;;;;8.87;100.00;99525.31;5050833;28;20029;-73
2023/01/10 09:29:57;;;;;;;48.45;31.80;;;;;;;9.29;100.00;99579.88;5050732;28;20060;-73
2023/01/10 09:32:23;;;;;;;43.15;30.73;;;;;;;9.21;100.00;99580.06;5050741;28;20057;-73
2023/01/10 09:34:48;;;;;;;43.03;28.38;;;;;;;9.35;100.00;99561.91;5083339;28;20147;-73
2023/01/10 09:37:13;;;;;;;45.13;29.25;;;;;;;8.95;100.00;99490.44;5049750;28;20494;-73
2023/01/10 09:39:39;;;;;;;42.55;29.30;;;;;;;9.32;100.00;99556.94;5050833;28;20029;-74
2023/01/10 09:42:21;;;;;;;42.97;31.08;;;;;;;9.35;100.00;99539.06;5050840;28;20028;-73
2023/01/10 09:44:58;;;;;;;45.58;30.08;;;;;;;9.37;100.00;99557.63;5051238;28;20036;-73
2023/01/10 09:47:34;;;;;;;42.03;29.95;;;;;;;9.29;100.00;99546.91;5052109;28;20032;-73
2023/01/10 09:50:22;;;;;;;40.60;29.42;;;;;;;9.38;100.00;99539.84;5054619;28;20037;-73
2023/01/10 09:53:11;;;;;;;44.13;30.42;;;;;;;9.37;100.00;99524.63;5052912;28;20458;-73
2023/01/10 09:55:38;;;;;;;41.90;29.65;;;;;;;8.97;100.00;99456.59;5053859;28;20415;-73
2023/01/10 09:58:10;;;;;;;42.88;29.02;;;;;;;9.40;100.00;99510.19;5052702;28;20462;-73
2023/01/10 10:00:41;;;;;;;38.13;26.58;;;;;;;9.36;100.00;99508.63;5052762;28;20025;-73
2023/01/10 10:03:34;;;;;;;44.23;30.27;;;;;;;9.37;100.00;99504.34;5054149;28;20051;-73
2023/01/10 10:06:02;;;;;;;40.25;28.55;;;;;;;9.54;100.00;99492.00;5054031;28;20108;-73
2023/01/10 10:08:29;;;;;;;42.25;27.77;;;;;;;9.44;100.00;99445.78;5050715;28;20116;-76
2023/01/10 10:11:12;;;;;;;36.10;24.98;;;;;;;9.91;100.00;99505.16;5033693;28;20039;-73
2023/01/10 10:14:04;;;;;;;39.03;25.08;;;;;;;10.13;100.00;99469.72;4701647;28;10000464;-73
2023/01/10 10:16:41;;;;;;;106.82;60.55;;;;;;;9.66;100.00;99410.38;5046183;28;20056;-74
2023/01/10 10:19:12;;;;;;;85.15;40.20;;;;;;;10.15;100.00;99470.50;5036841;28;20317;-74
2023/01/10 10:21:38;;;;;;;69.95;37.53;;;;;;;10.13;100.00;99457.88;5031466;28;20036;-72
2023/01/10 10:24:31;;;;;;;42.80;26.88;;;;;;;10.26;100.00;99448.94;5032633;28;20022;-72
2023/01/10 10:27:18;;;;;;;34.50;25.08;;;;;;;9.88;100.00;99380.03;5033361;28;20476;-73
2023/01/10 10:29:53;;;;;;;47.00;30.90;;;;;;;10.23;100.00;99433.81;5032802;28;20124;-73
2023/01/10 10:32:24;;;;;;;41.13;28.38;;;;;;;10.32;100.00;99427.56;5031995;28;20052;-73
2023/01/10 10:34:52;;;;;;;34.33;24.60;;;;;;;9.58;100.00;99285.50;5033642;28;20045;-73
2023/01/10 10:37:24;;;;;;;38.58;23.35;;;;;;;10.39;100.00;99408.69;5032271;28;20120;-71
2023/01/10 10:39:54;;;;;;;34.88;23.40;;;;;;;10.37;100.00;99402.81;5032083;28;20025;-73
2023/01/10 10:42:21;;;;;;;39.60;26.43;;;;;;;10.13;100.00;99330.88;5032377;28;20037;-72
2023/01/10 10:45:09;;;;;;;35.47;25.63;;;;;;;10.43;100.00;99390.72;5042198;28;20487;-77
2023/01/10 10:47:39;;;;;;;38.75;26.20;;;;;;;10.17;100.00;99327.34;5054074;28;20029;-78
2023/01/10 10:50:05;;;;;;;39.50;28.08;;;;;;;10.47;100.00;99391.44;5034213;28;20034;-77
2023/01/10 10:52:33;;;;;;;38.33;26.65;;;;;;;10.30;100.00;99376.00;5034177;28;20029;-76
2023/01/10 10:55:01;;;;;;;32.10;23.00;;;;;;;9.97;100.00;99301.81;5034153;28;20120;-76
2023/01/10 10:57:28;;;;;;;33.92;24.20;;;;;;;10.30;100.00;99332.81;5033855;28;20025;-77
2023/01/10 10:59:55;;;;;;;32.58;21.23;;;;;;;10.43;100.00;99359.41;5033471;28;20033;-76
2023/01/10 11:02:30;;;;;;;35.50;23.15;;;;;;;9.88;100.00;99259.00;5033575;28;20527;-74
2023/01/10 11:05:02;;;;;;;34.95;24.42;;;;;;;10.29;100.00;99347.22;5033794;28;20044;-75
2023/01/10 11:07:35;;;;;;;31.20;22.50;;;;;;;10.43;100.00;99337.38;5033595;28;20029;-76
2023/01/10 11:12:44;;;;;;;32.10;23.13;;;;;;;10.44;100.00;99330.56;5033367;28;20403;-76
2023/01/10 11:15:11;;;;;;;32.13;22.45;;;;;;;9.65;100.00;99198.09;5033280;28;20045;-76
2023/01/10 11:17:40;;;;;;;35.85;24.55;;;;;;;9.84;100.00;99249.03;5033793;28;20025;-76
2023/01/10 11:20:14;;;;;;;34.92;23.48;;;;;;;10.32;100.00;99311.53;5032708;28;20025;-76
2023/01/10 11:22:47;;;;;;;36.45;28.08;;;;;;;9.79;100.00;99238.19;5033439;28;20030;-76
2023/01/10 11:25:15;;;;;;;34.10;25.52;;;;;;;10.13;100.00;99310.56;5033800;28;20116;-77
2023/01/10 11:27:53;;;;;;;36.53;26.90;;;;;;;9.74;100.00;99256.16;5032582;28;20033;-76
2023/01/10 11:30:29;;;;;;;37.15;25.90;;;;;;;9.55;100.00;99239.91;5034068;28;20041;-77
2023/01/10 11:33:01;;;;;;;35.33;26.77;;;;;;;9.62;100.00;99246.44;5032454;28;20032;-79
2023/01/10 11:35:35;;;;;;;32.00;23.92;;;;;;;10.22;100.00;99310.22;5034148;28;20026;-77